sensor_id;sensor_type;location;lat;lon;timestamp;P1;durP1;ratioP1;P2;durP2;ratioP2
43413;SDS011;29013;49.676;8.606;2022-10-31T00:01:11;5.44;;;2.81;;
43413;SDS011;29013;49.676;8.606;2022-10-31T00:06:36;3.94;;;2.41;;
43413;SDS011;29013;49.676;8.606;2022-10-31T00:12:02;6.1;;;2.33;;
43413;SDS011;29013;49.676;8.606;2022-10-31T00:17:24;6.69;;;2.59;;
43413;SDS011;29013;49.676;8.606;2022-10-31T00:22:51;5.71;;;2.51;;
43413;SDS011;29013;49.676;8.606;2022-10-31T00:28:17;3.85;;;2.47;;
43413;SDS011;29013;49.676;8.606;2022-10-31T00:33:41;6.66;;;2.55;;
43413;SDS011;29013;49.676;8.606;2022-10-31T00:39:07;5.23;;;2.61;;
43413;SDS011;29013;49.676;8.606;2022-10-31T00:44:31;4.47;;;2.11;;
43413;SDS011;29013;49.676;8.606;2022-10-31T00:49:56;3.92;;;2.19;;
43413;SDS011;29013;49.676;8.606;2022-10-31T00:55:23;7.64;;;2.43;;
43413;SDS011;29013;49.676;8.606;2022-10-31T01:00:50;5.68;;;2.66;;
43413;SDS011;29013;49.676;8.606;2022-10-31T01:06:13;6.06;;;2.52;;
43413;SDS011;29013;49.676;8.606;2022-10-31T01:11:39;4.57;;;2.22;;
43413;SDS011;29013;49.676;8.606;2022-10-31T01:17:03;5.55;;;2.89;;
43413;SDS011;29013;49.676;8.606;2022-10-31T01:22:30;6.07;;;3.33;;
43413;SDS011;29013;49.676;8.606;2022-10-31T01:27:54;6.21;;;3.05;;
43413;SDS011;29013;49.676;8.606;2022-10-31T01:33:21;5.84;;;2.73;;
43413;SDS011;29013;49.676;8.606;2022-10-31T01:38:45;6.42;;;2.51;;
43413;SDS011;29013;49.676;8.606;2022-10-31T01:50:06;5.14;;;2.83;;
43413;SDS011;29013;49.676;8.606;2022-10-31T01:55:35;6.64;;;2.44;;
43413;SDS011;29013;49.676;8.606;2022-10-31T02:01:01;7.12;;;3.15;;
43413;SDS011;29013;49.676;8.606;2022-10-31T02:06:33;4.21;;;2.7;;
43413;SDS011;29013;49.676;8.606;2022-10-31T02:11:56;9.47;;;3.2;;
43413;SDS011;29013;49.676;8.606;2022-10-31T02:17:22;4.87;;;2.93;;
43413;SDS011;29013;49.676;8.606;2022-10-31T02:28:38;7.21;;;2.96;;
43413;SDS011;29013;49.676;8.606;2022-10-31T02:34:02;5.28;;;2.85;;
43413;SDS011;29013;49.676;8.606;2022-10-31T02:39:29;3.54;;;2.3;;
43413;SDS011;29013;49.676;8.606;2022-10-31T02:44:51;4.55;;;2.59;;
43413;SDS011;29013;49.676;8.606;2022-10-31T02:50:14;6.91;;;2.82;;
43413;SDS011;29013;49.676;8.606;2022-10-31T02:55:47;5.56;;;2.49;;
43413;SDS011;29013;49.676;8.606;2022-10-31T03:01:14;4.11;;;2.6;;
43413;SDS011;29013;49.676;8.606;2022-10-31T03:06:44;4.93;;;2.74;;
43413;SDS011;29013;49.676;8.606;2022-10-31T03:12:11;6.37;;;2.88;;
43413;SDS011;29013;49.676;8.606;2022-10-31T03:17:38;4.78;;;2.46;;
43413;SDS011;29013;49.676;8.606;2022-10-31T03:23:03;5.09;;;2.66;;
43413;SDS011;29013;49.676;8.606;2022-10-31T03:28:28;4.9;;;2.64;;
43413;SDS011;29013;49.676;8.606;2022-10-31T03:33:54;5.96;;;2.97;;
43413;SDS011;29013;49.676;8.606;2022-10-31T03:39:19;6.55;;;2.74;;
43413;SDS011;29013;49.676;8.606;2022-10-31T03:44:47;6.32;;;3.02;;
43413;SDS011;29013;49.676;8.606;2022-10-31T03:50:12;7.64;;;3.04;;
43413;SDS011;29013;49.676;8.606;2022-10-31T03:55:33;7.76;;;2.68;;
43413;SDS011;29013;49.676;8.606;2022-10-31T04:00:55;6.05;;;3.02;;
43413;SDS011;29013;49.676;8.606;2022-10-31T04:06:22;4.44;;;2.9;;
43413;SDS011;29013;49.676;8.606;2022-10-31T04:11:50;5.62;;;2.99;;
43413;SDS011;29013;49.676;8.606;2022-10-31T04:17:16;4.71;;;2.76;;
43413;SDS011;29013;49.676;8.606;2022-10-31T04:22:40;6.56;;;2.98;;
43413;SDS011;29013;49.676;8.606;2022-10-31T04:28:03;6.17;;;3.12;;
43413;SDS011;29013;49.676;8.606;2022-10-31T04:33:30;6.81;;;2.97;;
43413;SDS011;29013;49.676;8.606;2022-10-31T04:38:54;5.44;;;3.03;;
43413;SDS011;29013;49.676;8.606;2022-10-31T04:44:21;6.62;;;3.21;;
43413;SDS011;29013;49.676;8.606;2022-10-31T04:49:43;7.25;;;3.15;;
43413;SDS011;29013;49.676;8.606;2022-10-31T04:55:06;7.52;;;3.55;;
43413;SDS011;29013;49.676;8.606;2022-10-31T05:00:29;8.32;;;3.41;;
43413;SDS011;29013;49.676;8.606;2022-10-31T05:05:50;6.98;;;2.81;;
43413;SDS011;29013;49.676;8.606;2022-10-31T05:11:17;5.32;;;3.33;;
43413;SDS011;29013;49.676;8.606;2022-10-31T05:16:42;4.86;;;2.97;;
43413;SDS011;29013;49.676;8.606;2022-10-31T05:22:09;5.53;;;3.13;;
43413;SDS011;29013;49.676;8.606;2022-10-31T05:27:36;6.85;;;3.4;;
43413;SDS011;29013;49.676;8.606;2022-10-31T05:33:02;5.36;;;3.48;;
43413;SDS011;29013;49.676;8.606;2022-10-31T05:38:26;7.02;;;4.07;;
43413;SDS011;29013;49.676;8.606;2022-10-31T05:44:12;5.94;;;3.32;;
43413;SDS011;29013;49.676;8.606;2022-10-31T05:49:36;5.46;;;3.57;;
43413;SDS011;29013;49.676;8.606;2022-10-31T05:55:04;6.15;;;3.55;;
43413;SDS011;29013;49.676;8.606;2022-10-31T06:00:31;5.82;;;3.46;;
43413;SDS011;29013;49.676;8.606;2022-10-31T06:05:58;9.38;;;4.78;;
43413;SDS011;29013;49.676;8.606;2022-10-31T06:11:25;7.39;;;4.08;;
43413;SDS011;29013;49.676;8.606;2022-10-31T06:16:55;7.07;;;3.83;;
43413;SDS011;29013;49.676;8.606;2022-10-31T06:22:20;6.17;;;3.67;;
43413;SDS011;29013;49.676;8.606;2022-10-31T06:27:42;9.93;;;4.91;;
43413;SDS011;29013;49.676;8.606;2022-10-31T06:33:03;8.67;;;4.4;;
43413;SDS011;29013;49.676;8.606;2022-10-31T06:38:24;8.34;;;4.0;;
43413;SDS011;29013;49.676;8.606;2022-10-31T06:43:50;8.05;;;4.23;;
43413;SDS011;29013;49.676;8.606;2022-10-31T06:49:14;7.07;;;4.2;;
43413;SDS011;29013;49.676;8.606;2022-10-31T06:54:42;4.96;;;3.84;;
43413;SDS011;29013;49.676;8.606;2022-10-31T07:00:08;8.45;;;4.37;;
43413;SDS011;29013;49.676;8.606;2022-10-31T07:05:31;7.62;;;4.56;;
43413;SDS011;29013;49.676;8.606;2022-10-31T07:10:57;8.49;;;5.04;;
43413;SDS011;29013;49.676;8.606;2022-10-31T07:16:19;8.7;;;5.13;;
43413;SDS011;29013;49.676;8.606;2022-10-31T07:21:46;7.75;;;4.68;;
43413;SDS011;29013;49.676;8.606;2022-10-31T07:27:11;9.71;;;5.13;;
43413;SDS011;29013;49.676;8.606;2022-10-31T07:32:38;8.18;;;4.81;;
43413;SDS011;29013;49.676;8.606;2022-10-31T07:38:10;7.15;;;4.67;;
43413;SDS011;29013;49.676;8.606;2022-10-31T07:43:37;8.86;;;4.19;;
43413;SDS011;29013;49.676;8.606;2022-10-31T07:49:05;10.96;;;5.55;;
43413;SDS011;29013;49.676;8.606;2022-10-31T07:54:31;9.62;;;5.44;;
43413;SDS011;29013;49.676;8.606;2022-10-31T07:59:53;8.16;;;4.93;;
43413;SDS011;29013;49.676;8.606;2022-10-31T08:05:15;11.56;;;4.91;;
43413;SDS011;29013;49.676;8.606;2022-10-31T08:10:36;7.75;;;4.69;;
43413;SDS011;29013;49.676;8.606;2022-10-31T08:15:58;6.09;;;4.54;;
43413;SDS011;29013;49.676;8.606;2022-10-31T08:21:22;8.08;;;4.34;;
43413;SDS011;29013;49.676;8.606;2022-10-31T08:26:43;4.81;;;3.91;;
43413;SDS011;29013;49.676;8.606;2022-10-31T08:32:05;5.88;;;3.86;;
43413;SDS011;29013;49.676;8.606;2022-10-31T08:37:27;7.08;;;4.04;;
43413;SDS011;29013;49.676;8.606;2022-10-31T08:42:56;6.58;;;4.27;;
43413;SDS011;29013;49.676;8.606;2022-10-31T08:48:18;4.84;;;3.24;;
43413;SDS011;29013;49.676;8.606;2022-10-31T08:53:40;5.39;;;3.5;;
43413;SDS011;29013;49.676;8.606;2022-10-31T08:59:02;4.91;;;3.24;;
43413;SDS011;29013;49.676;8.606;2022-10-31T09:04:27;5.9;;;3.2;;
43413;SDS011;29013;49.676;8.606;2022-10-31T09:09:54;4.76;;;3.63;;
43413;SDS011;29013;49.676;8.606;2022-10-31T09:15:22;4.1;;;3.36;;
43413;SDS011;29013;49.676;8.606;2022-10-31T09:20:49;4.3;;;3.35;;
43413;SDS011;29013;49.676;8.606;2022-10-31T09:26:15;7.16;;;3.43;;
43413;SDS011;29013;49.676;8.606;2022-10-31T09:31:43;5.65;;;3.58;;
43413;SDS011;29013;49.676;8.606;2022-10-31T09:37:07;5.71;;;3.81;;
43413;SDS011;29013;49.676;8.606;2022-10-31T09:42:45;5.45;;;3.98;;
43413;SDS011;29013;49.676;8.606;2022-10-31T09:54:04;7.4;;;3.71;;
43413;SDS011;29013;49.676;8.606;2022-10-31T09:59:21;5.8;;;4.0;;
43413;SDS011;29013;49.676;8.606;2022-10-31T10:04:49;5.69;;;4.02;;
43413;SDS011;29013;49.676;8.606;2022-10-31T10:10:14;6.36;;;4.4;;
43413;SDS011;29013;49.676;8.606;2022-10-31T10:15:39;5.78;;;3.93;;
43413;SDS011;29013;49.676;8.606;2022-10-31T10:21:12;4.46;;;3.41;;
43413;SDS011;29013;49.676;8.606;2022-10-31T10:26:42;5.79;;;3.76;;
43413;SDS011;29013;49.676;8.606;2022-10-31T10:32:08;5.38;;;3.79;;
43413;SDS011;29013;49.676;8.606;2022-10-31T10:37:36;6.3;;;3.89;;
43413;SDS011;29013;49.676;8.606;2022-10-31T10:43:09;5.21;;;3.49;;
43413;SDS011;29013;49.676;8.606;2022-10-31T10:48:36;5.7;;;3.62;;
43413;SDS011;29013;49.676;8.606;2022-10-31T10:54:13;5.47;;;3.54;;
43413;SDS011;29013;49.676;8.606;2022-10-31T10:59:40;5.27;;;3.84;;
43413;SDS011;29013;49.676;8.606;2022-10-31T11:05:08;6.78;;;4.28;;
43413;SDS011;29013;49.676;8.606;2022-10-31T11:10:30;5.75;;;4.02;;
43413;SDS011;29013;49.676;8.606;2022-10-31T11:15:56;7.28;;;4.15;;
43413;SDS011;29013;49.676;8.606;2022-10-31T11:21:21;7.91;;;4.2;;
43413;SDS011;29013;49.676;8.606;2022-10-31T11:26:48;6.99;;;4.3;;
43413;SDS011;29013;49.676;8.606;2022-10-31T11:32:17;6.91;;;4.64;;
43413;SDS011;29013;49.676;8.606;2022-10-31T11:37:43;10.12;;;5.05;;
43413;SDS011;29013;49.676;8.606;2022-10-31T11:43:15;7.65;;;5.08;;
43413;SDS011;29013;49.676;8.606;2022-10-31T11:48:45;7.44;;;4.92;;
43413;SDS011;29013;49.676;8.606;2022-10-31T11:54:18;10.75;;;5.34;;
43413;SDS011;29013;49.676;8.606;2022-10-31T11:59:49;10.25;;;5.57;;
43413;SDS011;29013;49.676;8.606;2022-10-31T12:05:17;9.69;;;5.32;;
43413;SDS011;29013;49.676;8.606;2022-10-31T12:10:39;8.22;;;5.22;;
43413;SDS011;29013;49.676;8.606;2022-10-31T12:16:08;7.59;;;4.55;;
43413;SDS011;29013;49.676;8.606;2022-10-31T12:27:17;9.69;;;5.02;;
43413;SDS011;29013;49.676;8.606;2022-10-31T12:32:50;8.02;;;4.12;;
43413;SDS011;29013;49.676;8.606;2022-10-31T12:44:04;6.73;;;4.01;;
43413;SDS011;29013;49.676;8.606;2022-10-31T12:49:41;7.34;;;3.64;;
43413;SDS011;29013;49.676;8.606;2022-10-31T12:55:10;6.65;;;4.0;;
43413;SDS011;29013;49.676;8.606;2022-10-31T13:00:36;6.92;;;3.57;;
43413;SDS011;29013;49.676;8.606;2022-10-31T13:06:05;8.26;;;4.18;;
43413;SDS011;29013;49.676;8.606;2022-10-31T13:11:30;7.41;;;4.0;;
43413;SDS011;29013;49.676;8.606;2022-10-31T13:16:51;7.12;;;4.46;;
43413;SDS011;29013;49.676;8.606;2022-10-31T13:22:20;6.0;;;3.89;;
43413;SDS011;29013;49.676;8.606;2022-10-31T13:27:46;7.37;;;3.48;;
43413;SDS011;29013;49.676;8.606;2022-10-31T13:33:11;9.41;;;4.16;;
43413;SDS011;29013;49.676;8.606;2022-10-31T13:38:40;12.85;;;4.33;;
43413;SDS011;29013;49.676;8.606;2022-10-31T13:44:01;6.8;;;3.74;;
43413;SDS011;29013;49.676;8.606;2022-10-31T13:49:38;6.78;;;3.74;;
43413;SDS011;29013;49.676;8.606;2022-10-31T13:55:20;5.34;;;3.08;;
43413;SDS011;29013;49.676;8.606;2022-10-31T14:00:26;7.28;;;3.28;;
43413;SDS011;29013;49.676;8.606;2022-10-31T14:05:53;6.86;;;3.37;;
43413;SDS011;29013;49.676;8.606;2022-10-31T14:11:21;7.53;;;3.56;;
43413;SDS011;29013;49.676;8.606;2022-10-31T14:16:45;4.98;;;3.24;;
43413;SDS011;29013;49.676;8.606;2022-10-31T14:22:20;6.9;;;3.13;;
43413;SDS011;29013;49.676;8.606;2022-10-31T14:27:46;6.17;;;3.55;;
43413;SDS011;29013;49.676;8.606;2022-10-31T14:33:17;6.51;;;3.26;;
43413;SDS011;29013;49.676;8.606;2022-10-31T14:38:46;8.45;;;3.3;;
43413;SDS011;29013;49.676;8.606;2022-10-31T14:50:03;6.24;;;3.2;;
43413;SDS011;29013;49.676;8.606;2022-10-31T14:55:36;8.85;;;3.78;;
43413;SDS011;29013;49.676;8.606;2022-10-31T15:00:59;9.63;;;3.32;;
43413;SDS011;29013;49.676;8.606;2022-10-31T15:06:21;7.71;;;3.05;;
43413;SDS011;29013;49.676;8.606;2022-10-31T15:11:48;4.7;;;2.92;;
43413;SDS011;29013;49.676;8.606;2022-10-31T15:17:16;8.9;;;3.8;;
43413;SDS011;29013;49.676;8.606;2022-10-31T15:22:45;5.62;;;3.2;;
43413;SDS011;29013;49.676;8.606;2022-10-31T15:28:15;6.38;;;3.49;;
43413;SDS011;29013;49.676;8.606;2022-10-31T15:33:46;8.57;;;3.38;;
43413;SDS011;29013;49.676;8.606;2022-10-31T15:39:10;6.53;;;3.17;;
43413;SDS011;29013;49.676;8.606;2022-10-31T15:44:33;7.35;;;3.19;;
43413;SDS011;29013;49.676;8.606;2022-10-31T15:49:58;5.21;;;3.45;;
43413;SDS011;29013;49.676;8.606;2022-10-31T15:55:25;8.45;;;3.8;;
43413;SDS011;29013;49.676;8.606;2022-10-31T16:01:00;6.55;;;3.46;;
43413;SDS011;29013;49.676;8.606;2022-10-31T16:06:23;5.4;;;3.34;;
43413;SDS011;29013;49.676;8.606;2022-10-31T16:11:48;9.79;;;3.89;;
43413;SDS011;29013;49.676;8.606;2022-10-31T16:17:12;8.74;;;3.46;;
43413;SDS011;29013;49.676;8.606;2022-10-31T16:22:35;9.5;;;4.36;;
43413;SDS011;29013;49.676;8.606;2022-10-31T16:28:01;8.99;;;4.72;;
43413;SDS011;29013;49.676;8.606;2022-10-31T16:33:24;7.2;;;3.96;;
43413;SDS011;29013;49.676;8.606;2022-10-31T16:38:46;9.66;;;4.36;;
43413;SDS011;29013;49.676;8.606;2022-10-31T16:44:18;6.36;;;3.81;;
43413;SDS011;29013;49.676;8.606;2022-10-31T16:49:40;5.48;;;3.41;;
43413;SDS011;29013;49.676;8.606;2022-10-31T16:55:10;8.19;;;3.92;;
43413;SDS011;29013;49.676;8.606;2022-10-31T17:00:41;7.64;;;4.73;;
43413;SDS011;29013;49.676;8.606;2022-10-31T17:06:13;8.98;;;4.67;;
43413;SDS011;29013;49.676;8.606;2022-10-31T17:11:37;9.02;;;5.05;;
43413;SDS011;29013;49.676;8.606;2022-10-31T17:17:01;8.8;;;4.58;;
43413;SDS011;29013;49.676;8.606;2022-10-31T17:22:27;6.41;;;4.63;;
43413;SDS011;29013;49.676;8.606;2022-10-31T17:27:53;7.93;;;4.29;;
43413;SDS011;29013;49.676;8.606;2022-10-31T17:33:20;10.18;;;5.19;;
43413;SDS011;29013;49.676;8.606;2022-10-31T17:38:45;7.49;;;4.68;;
43413;SDS011;29013;49.676;8.606;2022-10-31T17:44:10;7.96;;;5.05;;
43413;SDS011;29013;49.676;8.606;2022-10-31T17:49:36;10.51;;;5.33;;
43413;SDS011;29013;49.676;8.606;2022-10-31T17:55:04;9.14;;;5.11;;
43413;SDS011;29013;49.676;8.606;2022-10-31T18:00:31;11.52;;;5.69;;
43413;SDS011;29013;49.676;8.606;2022-10-31T18:05:55;10.72;;;6.1;;
43413;SDS011;29013;49.676;8.606;2022-10-31T18:11:22;9.83;;;5.03;;
43413;SDS011;29013;49.676;8.606;2022-10-31T18:16:47;7.96;;;5.42;;
43413;SDS011;29013;49.676;8.606;2022-10-31T18:22:16;8.57;;;5.05;;
43413;SDS011;29013;49.676;8.606;2022-10-31T18:27:43;12.02;;;6.1;;
43413;SDS011;29013;49.676;8.606;2022-10-31T18:33:10;11.5;;;5.06;;
43413;SDS011;29013;49.676;8.606;2022-10-31T18:38:37;8.76;;;4.43;;
43413;SDS011;29013;49.676;8.606;2022-10-31T18:44:01;7.92;;;4.49;;
43413;SDS011;29013;49.676;8.606;2022-10-31T18:49:27;8.67;;;5.27;;
43413;SDS011;29013;49.676;8.606;2022-10-31T18:54:53;10.22;;;5.73;;
43413;SDS011;29013;49.676;8.606;2022-10-31T19:00:20;10.13;;;5.39;;
43413;SDS011;29013;49.676;8.606;2022-10-31T19:05:43;8.64;;;5.56;;
43413;SDS011;29013;49.676;8.606;2022-10-31T19:11:11;9.42;;;5.63;;
43413;SDS011;29013;49.676;8.606;2022-10-31T19:16:41;10.06;;;5.87;;
43413;SDS011;29013;49.676;8.606;2022-10-31T19:22:05;8.62;;;5.3;;
43413;SDS011;29013;49.676;8.606;2022-10-31T19:27:30;10.35;;;5.62;;
43413;SDS011;29013;49.676;8.606;2022-10-31T19:32:58;11.89;;;5.94;;
43413;SDS011;29013;49.676;8.606;2022-10-31T19:38:25;13.11;;;6.74;;
43413;SDS011;29013;49.676;8.606;2022-10-31T19:43:49;14.5;;;6.75;;
43413;SDS011;29013;49.676;8.606;2022-10-31T19:49:15;11.95;;;6.89;;
43413;SDS011;29013;49.676;8.606;2022-10-31T19:54:41;10.69;;;6.41;;
43413;SDS011;29013;49.676;8.606;2022-10-31T20:00:07;8.16;;;5.78;;
43413;SDS011;29013;49.676;8.606;2022-10-31T20:05:31;8.93;;;5.64;;
43413;SDS011;29013;49.676;8.606;2022-10-31T20:10:59;9.17;;;5.57;;
43413;SDS011;29013;49.676;8.606;2022-10-31T20:16:25;8.81;;;5.72;;
43413;SDS011;29013;49.676;8.606;2022-10-31T20:21:52;9.01;;;6.1;;
43413;SDS011;29013;49.676;8.606;2022-10-31T20:27:19;11.13;;;6.61;;
43413;SDS011;29013;49.676;8.606;2022-10-31T20:32:41;10.63;;;7.05;;
43413;SDS011;29013;49.676;8.606;2022-10-31T20:38:03;8.89;;;5.89;;
43413;SDS011;29013;49.676;8.606;2022-10-31T20:43:25;13.02;;;6.9;;
43413;SDS011;29013;49.676;8.606;2022-10-31T20:48:48;14.34;;;6.41;;
43413;SDS011;29013;49.676;8.606;2022-10-31T20:54:15;11.48;;;6.34;;
43413;SDS011;29013;49.676;8.606;2022-10-31T20:59:43;10.52;;;6.59;;
43413;SDS011;29013;49.676;8.606;2022-10-31T21:05:11;11.78;;;6.05;;
43413;SDS011;29013;49.676;8.606;2022-10-31T21:10:35;10.71;;;5.64;;
43413;SDS011;29013;49.676;8.606;2022-10-31T21:16:00;11.85;;;6.33;;
43413;SDS011;29013;49.676;8.606;2022-10-31T21:21:28;15.51;;;7.36;;
43413;SDS011;29013;49.676;8.606;2022-10-31T21:26:50;15.32;;;7.88;;
43413;SDS011;29013;49.676;8.606;2022-10-31T21:32:18;11.9;;;6.93;;
43413;SDS011;29013;49.676;8.606;2022-10-31T21:37:46;10.86;;;6.99;;
43413;SDS011;29013;49.676;8.606;2022-10-31T21:43:16;15.1;;;7.49;;
43413;SDS011;29013;49.676;8.606;2022-10-31T21:48:42;9.83;;;6.84;;
43413;SDS011;29013;49.676;8.606;2022-10-31T21:54:05;10.21;;;6.2;;
43413;SDS011;29013;49.676;8.606;2022-10-31T21:59:29;12.12;;;7.17;;
43413;SDS011;29013;49.676;8.606;2022-10-31T22:04:56;13.7;;;6.82;;
43413;SDS011;29013;49.676;8.606;2022-10-31T22:10:22;14.31;;;8.13;;
43413;SDS011;29013;49.676;8.606;2022-10-31T22:15:50;10.05;;;6.53;;
43413;SDS011;29013;49.676;8.606;2022-10-31T22:21:16;10.34;;;6.5;;
43413;SDS011;29013;49.676;8.606;2022-10-31T22:26:42;10.63;;;6.42;;
43413;SDS011;29013;49.676;8.606;2022-10-31T22:32:08;13.91;;;7.29;;
43413;SDS011;29013;49.676;8.606;2022-10-31T22:37:32;11.97;;;7.37;;
43413;SDS011;29013;49.676;8.606;2022-10-31T22:42:58;15.83;;;8.16;;
43413;SDS011;29013;49.676;8.606;2022-10-31T22:48:25;14.46;;;8.52;;
43413;SDS011;29013;49.676;8.606;2022-10-31T22:53:52;15.13;;;9.01;;
43413;SDS011;29013;49.676;8.606;2022-10-31T22:59:16;14.47;;;8.55;;
43413;SDS011;29013;49.676;8.606;2022-10-31T23:04:41;15.13;;;9.12;;
43413;SDS011;29013;49.676;8.606;2022-10-31T23:10:08;13.3;;;8.41;;
43413;SDS011;29013;49.676;8.606;2022-10-31T23:15:37;18.1;;;8.48;;
43413;SDS011;29013;49.676;8.606;2022-10-31T23:21:04;14.37;;;7.54;;
43413;SDS011;29013;49.676;8.606;2022-10-31T23:26:26;11.39;;;7.45;;
43413;SDS011;29013;49.676;8.606;2022-10-31T23:31:52;12.66;;;7.34;;
43413;SDS011;29013;49.676;8.606;2022-10-31T23:37:17;10.62;;;7.37;;
43413;SDS011;29013;49.676;8.606;2022-10-31T23:42:45;11.08;;;7.45;;
43413;SDS011;29013;49.676;8.606;2022-10-31T23:48:13;14.5;;;7.79;;
43413;SDS011;29013;49.676;8.606;2022-10-31T23:53:38;11.5;;;7.34;;
43413;SDS011;29013;49.676;8.606;2022-10-31T23:59:06;11.8;;;6.62;;
